Time;durP1;ratioP1;P1;durP2;ratioP2;P2;SDS_P1;SDS_P2;PMS_P1;PMS_P2;Temp;Humidity;BMP_temperature;BMP_pressure;BME280_temperature;BME280_humidity;BME280_pressure;Samples;Min_cycle;Max_cycle;Signal;HPM_P1;HPM_P2
2021/12/06 00:01:05;;;;;;;47.00;23.92;;;;;;;6.82;81.01;95782.84;5073134;28;20051;-61
2021/12/06 00:03:42;;;;;;;37.83;19.52;;;;;;;6.79;81.04;95762.16;5073000;28;20032;-66
2021/12/06 00:06:09;;;;;;;37.63;20.77;;;;;;;6.77;80.58;95761.38;5072980;28;20063;-62
2021/12/06 00:08:35;;;;;;;39.63;20.08;;;;;;;6.71;80.85;95754.63;5072985;28;20024;-65
2021/12/06 00:11:07;;;;;;;38.97;19.60;;;;;;;6.68;81.01;95753.00;5072977;28;20036;-63
2021/12/06 00:13:37;;;;;;;35.30;18.75;;;;;;;6.68;81.08;95754.75;5072964;28;20033;-62
2021/12/06 00:16:07;;;;;;;33.60;17.98;;;;;;;6.62;80.93;95765.38;5072865;28;20020;-61
2021/12/06 00:18:33;;;;;;;25.05;14.48;;;;;;;6.55;81.24;95773.38;5072802;28;20108;-64
2021/12/06 00:21:00;;;;;;;31.58;17.67;;;;;;;6.53;80.85;95769.97;5072918;28;20104;-63
2021/12/06 00:23:27;;;;;;;29.13;16.00;;;;;;;6.48;80.30;95771.03;5072609;28;20044;-66
2021/12/06 00:25:53;;;;;;;30.55;18.08;;;;;;;6.32;79.99;95753.34;5072844;28;20025;-65
2021/12/06 00:28:19;;;;;;;29.92;18.40;;;;;;;6.15;79.91;95748.72;5072728;28;20359;-61
2021/12/06 00:30:44;;;;;;;31.02;17.67;;;;;;;6.09;80.63;95747.19;5072733;28;20539;-62
2021/12/06 00:33:10;;;;;;;31.27;15.88;;;;;;;6.04;80.68;95754.28;5072737;28;20017;-62
2021/12/06 00:35:36;;;;;;;38.53;19.83;;;;;;;5.97;82.20;95768.31;5072808;28;20021;-63
2021/12/06 00:38:01;;;;;;;37.15;19.73;;;;;;;5.99;82.84;95762.16;5072720;28;20111;-65
2021/12/06 00:40:34;;;;;;;32.35;17.13;;;;;;;5.99;82.08;95753.56;5072678;28;20028;-64
2021/12/06 00:43:01;;;;;;;39.35;17.73;;;;;;;5.95;82.07;95757.97;5072546;28;20032;-64
2021/12/06 00:45:27;;;;;;;30.08;18.17;;;;;;;5.94;81.54;95759.72;5072683;28;20024;-67
2021/12/06 00:47:53;;;;;;;36.90;17.50;;;;;;;5.93;81.62;95768.41;5072678;28;20021;-61
2021/12/06 00:50:21;;;;;;;43.92;20.77;;;;;;;5.90;81.69;95752.94;5073593;28;20024;-62
2021/12/06 00:52:47;;;;;;;40.22;20.10;;;;;;;5.92;81.96;95756.34;5076239;28;20185;-62
2021/12/06 00:55:14;;;;;;;43.40;20.63;;;;;;;5.79;82.16;95748.09;5076244;28;20417;-63
2021/12/06 00:57:41;;;;;;;50.88;23.77;;;;;;;5.73;82.31;95737.06;5076302;28;20024;-64
2021/12/06 01:00:17;;;;;;;60.78;23.35;;;;;;;5.76;83.10;95742.16;5076259;28;20021;-63
2021/12/06 01:02:43;;;;;;;50.85;22.30;;;;;;;5.75;83.91;95743.06;5076062;28;20044;-61
2021/12/06 01:05:09;;;;;;;51.20;23.88;;;;;;;5.71;85.08;95742.28;5076135;28;20032;-64
2021/12/06 01:07:35;;;;;;;57.38;23.50;;;;;;;5.70;85.64;95753.56;5076030;28;20039;-64
2021/12/06 01:10:00;;;;;;;53.88;22.90;;;;;;;5.66;85.60;95752.81;5075952;28;20032;-60
2021/12/06 01:12:26;;;;;;;45.85;22.00;;;;;;;5.71;85.00;95755.25;5075935;28;20029;-63
2021/12/06 01:14:52;;;;;;;47.22;23.13;;;;;;;5.69;84.32;95749.28;5075879;28;20029;-63
2021/12/06 01:17:17;;;;;;;38.75;21.33;;;;;;;5.71;84.33;95749.22;5075896;28;20557;-64
2021/12/06 01:19:43;;;;;;;42.15;18.55;;;;;;;5.69;83.59;95754.47;5075852;28;20013;-64
2021/12/06 01:22:43;;;;;;;47.80;22.58;;;;;;;5.68;83.46;95755.34;5075573;28;20051;-65
2021/12/06 01:25:03;;;;;;;46.72;22.92;;;;;;;5.69;83.15;95744.09;5075470;28;20041;-64
2021/12/06 01:27:43;;;;;;;;;;;;;;;5.70;83.21;95738.00;5076194;28;20025;-60
2021/12/06 01:30:25;;;;;;;52.90;20.25;;;;;;;5.63;83.79;95742.53;5075658;28;20362;-66
2021/12/06 01:41:02;;;;;;;40.63;20.75;;;;;;;5.70;85.50;95722.44;5075801;28;20047;-63
2021/12/06 01:43:28;;;;;;;44.90;20.17;;;;;;;5.71;84.12;95711.16;5075361;28;20466;-63
2021/12/06 01:45:54;;;;;;;62.42;26.25;;;;;;;5.67;85.46;95712.16;5075365;28;20136;-66
2021/12/06 01:48:19;;;;;;;49.50;23.27;;;;;;;5.74;85.46;95721.44;5075357;28;20177;-63
2021/12/06 01:50:45;;;;;;;50.78;24.17;;;;;;;5.78;85.79;95720.44;5075286;28;20025;-64
2021/12/06 01:53:12;;;;;;;51.08;22.50;;;;;;;5.84;85.53;95715.97;5075152;28;20028;-63
2021/12/06 01:55:39;;;;;;;51.72;22.60;;;;;;;5.83;85.62;95730.66;5075218;28;20072;-62
2021/12/06 01:58:07;;;;;;;49.10;23.15;;;;;;;5.85;85.89;95731.47;5075201;28;20048;-63
2021/12/06 02:00:44;;;;;;;47.65;22.05;;;;;;;5.93;86.39;95741.63;5074866;28;20471;-64
2021/12/06 02:03:10;;;;;;;42.58;21.85;;;;;;;5.97;86.21;95744.94;5074932;28;20111;-62
2021/12/06 02:05:38;;;;;;;52.88;24.35;;;;;;;5.98;86.28;95759.63;5075186;28;20104;-59
2021/12/06 02:08:05;;;;;;;49.47;23.45;;;;;;;6.02;86.28;95758.66;5075010;28;20051;-67
2021/12/06 02:10:31;;;;;;;45.08;22.48;;;;;;;6.09;86.09;95748.94;5074788;28;20459;-67
2021/12/06 02:12:56;;;;;;;45.22;20.98;;;;;;;6.12;86.12;95754.88;5074823;28;20025;-60
2021/12/06 02:17:57;;;;;;;44.92;22.48;;;;;;;6.15;85.31;95736.59;5074834;28;20021;-65
2021/12/06 02:20:27;;;;;;;43.72;19.90;;;;;;;6.17;84.96;95724.41;5074641;28;20062;-63
2021/12/06 02:22:54;;;;;;;46.73;21.97;;;;;;;6.22;84.32;95719.06;5074352;28;20143;-62
2021/12/06 02:25:20;;;;;;;44.15;21.98;;;;;;;6.22;84.02;95723.41;5074621;28;20394;-63
2021/12/06 02:27:49;;;;;;;40.13;21.10;;;;;;;6.22;84.34;95720.78;5074464;28;20021;-63
2021/12/06 02:30:17;;;;;;;40.20;20.20;;;;;;;6.22;83.98;95711.25;5074574;28;20024;-63
2021/12/06 02:32:44;;;;;;;42.58;20.83;;;;;;;6.24;83.93;95714.66;5074356;28;20029;-66
2021/12/06 02:35:15;;;;;;;37.78;20.42;;;;;;;6.24;83.83;95717.28;5074581;28;20025;-65
2021/12/06 02:37:41;;;;;;;40.35;18.75;;;;;;;6.24;83.14;95706.03;5074521;28;20037;-66
2021/12/06 02:40:14;;;;;;;38.22;20.23;;;;;;;6.21;83.06;95712.19;5074339;28;20023;-64
2021/12/06 02:42:41;;;;;;;35.72;19.48;;;;;;;6.21;82.96;95708.72;5074314;28;20107;-64
2021/12/06 02:45:09;;;;;;;30.25;17.38;;;;;;;6.11;82.60;95698.63;5074243;28;20474;-64
2021/12/06 02:47:35;;;;;;;35.80;18.83;;;;;;;5.97;82.86;95688.69;5074214;28;20040;-64
2021/12/06 02:50:07;;;;;;;33.08;16.30;;;;;;;5.90;82.45;95677.66;5074052;28;20035;-65
2021/12/06 02:52:33;;;;;;;29.13;15.43;;;;;;;5.81;83.18;95691.78;5074121;28;20098;-60
2021/12/06 02:55:00;;;;;;;26.38;16.10;;;;;;;5.72;83.38;95684.28;5073944;28;20479;-60
2021/12/06 02:57:35;;;;;;;24.00;15.77;;;;;;;5.75;83.26;95685.97;5073941;28;20021;-65
2021/12/06 03:00:03;;;;;;;26.45;13.88;;;;;;;5.72;82.57;95679.09;5072737;28;20032;-67
2021/12/06 03:02:30;;;;;;;27.35;16.15;;;;;;;5.54;82.24;95683.16;5073811;28;20474;-61
2021/12/06 03:04:56;;;;;;;27.83;15.43;;;;;;;5.46;82.59;95674.75;5073718;28;20024;-62
2021/12/06 03:07:24;;;;;;;30.75;15.73;;;;;;;5.42;82.92;95677.44;5073676;28;20070;-65
2021/12/06 03:09:53;;;;;;;29.92;16.38;;;;;;;5.34;82.33;95679.44;5073731;28;20020;-64
2021/12/06 03:12:22;;;;;;;31.77;16.67;;;;;;;5.31;82.65;95688.16;5073292;28;20020;-61
2021/12/06 03:14:51;;;;;;;30.52;16.90;;;;;;;5.26;82.72;95690.03;5073279;28;20029;-63
2021/12/06 03:17:20;;;;;;;28.23;17.13;;;;;;;5.25;82.67;95675.38;5073580;28;20029;-66
2021/12/06 03:19:46;;;;;;;28.50;16.13;;;;;;;5.16;81.83;95662.69;5073566;28;20060;-61
2021/12/06 03:22:14;;;;;;;28.30;15.48;;;;;;;5.06;82.45;95659.53;5073292;28;20425;-61
2021/12/06 03:24:41;;;;;;;25.55;15.50;;;;;;;4.99;82.56;95656.28;5073416;28;20032;-63
2021/12/06 03:27:07;;;;;;;23.15;14.38;;;;;;;4.96;82.40;95648.59;5073440;28;20036;-60
2021/12/06 03:29:33;;;;;;;25.48;15.45;;;;;;;4.85;83.23;95664.44;5073364;28;20028;-65
2021/12/06 03:31:59;;;;;;;36.72;17.65;;;;;;;4.84;84.85;95674.88;5073434;28;20028;-61
2021/12/06 03:34:28;;;;;;;30.38;16.85;;;;;;;4.91;84.94;95666.03;5073440;28;20017;-64
2021/12/06 03:36:55;;;;;;;38.57;18.70;;;;;;;4.91;85.02;95673.81;5072086;28;20024;-59
2021/12/06 03:39:25;;;;;;;39.13;17.15;;;;;;;4.90;85.03;95674.69;5073349;28;20114;-62
2021/12/06 03:41:55;;;;;;;30.83;16.53;;;;;;;4.87;84.24;95674.78;5073277;28;20035;-64
2021/12/06 03:44:20;;;;;;;42.78;18.48;;;;;;;4.75;84.91;95666.47;5073141;28;20031;-61
2021/12/06 03:46:48;;;;;;;40.55;18.10;;;;;;;4.81;85.42;95680.97;5073154;28;20032;-61
2021/12/06 03:49:15;;;;;;;36.22;19.58;;;;;;;4.90;86.23;95685.03;5071878;28;20035;-62
2021/12/06 03:51:43;;;;;;;41.15;19.38;;;;;;;4.97;86.18;95690.91;5073091;28;20107;-61
2021/12/06 03:54:12;;;;;;;36.47;17.58;;;;;;;5.00;85.72;95694.25;5073047;28;20033;-62
2021/12/06 03:56:39;;;;;;;40.10;17.83;;;;;;;5.05;85.67;95694.97;5073061;28;20029;-64
2021/12/06 03:59:05;;;;;;;41.20;17.85;;;;;;;5.11;86.06;95685.31;5073119;28;20025;-63
2021/12/06 04:01:32;;;;;;;33.75;17.20;;;;;;;5.08;85.90;95691.44;5073002;28;20024;-66
2021/12/06 04:03:58;;;;;;;40.03;16.40;;;;;;;5.13;85.81;95694.75;5072892;28;20028;-61
2021/12/06 04:06:24;;;;;;;29.13;15.70;;;;;;;5.12;85.25;95690.44;5073047;28;20108;-64
2021/12/06 04:08:50;;;;;;;30.58;16.00;;;;;;;5.10;84.25;95683.63;5073072;28;20056;-65
2021/12/06 04:11:17;;;;;;;32.92;16.23;;;;;;;5.13;83.93;95686.13;5072925;28;20459;-64
2021/12/06 04:13:43;;;;;;;30.48;16.20;;;;;;;5.13;83.29;95676.59;5072844;28;20027;-60
2021/12/06 04:16:09;;;;;;;28.38;16.00;;;;;;;5.12;83.49;95690.44;5072790;28;20398;-65
2021/12/06 04:18:34;;;;;;;26.42;15.30;;;;;;;5.11;83.38;95686.16;5072813;28;20074;-62
2021/12/06 04:21:00;;;;;;;27.08;14.90;;;;;;;5.14;83.57;95693.00;5072834;28;20052;-63
2021/12/06 04:23:26;;;;;;;31.23;14.70;;;;;;;5.14;83.37;95701.63;5072519;28;20135;-61
2021/12/06 04:25:52;;;;;;;40.85;19.38;;;;;;;5.20;83.27;95708.38;5076581;28;20478;-65
2021/12/06 04:28:19;;;;;;;33.03;17.83;;;;;;;5.22;83.51;95703.13;5076961;28;20056;-62
2021/12/06 04:30:46;;;;;;;37.10;16.45;;;;;;;5.28;83.87;95700.38;5076805;28;20059;-62
2021/12/06 04:33:13;;;;;;;31.27;16.00;;;;;;;5.29;83.45;95697.72;5076794;28;20059;-64
2021/12/06 04:35:39;;;;;;;29.05;14.38;;;;;;;5.33;83.07;95693.31;5076657;28;20497;-61
2021/12/06 04:38:07;;;;;;;32.03;15.27;;;;;;;5.29;83.17;95689.09;5076656;28;20029;-63
2021/12/06 04:40:33;;;;;;;28.63;15.98;;;;;;;5.29;83.09;95686.50;5076592;28;20447;-65
2021/12/06 04:42:59;;;;;;;39.40;16.85;;;;;;;5.30;83.36;95691.63;5076572;28;20344;-61
2021/12/06 04:45:25;;;;;;;33.85;17.55;;;;;;;5.33;83.47;95692.44;5076625;28;20036;-64
2021/12/06 04:47:52;;;;;;;48.00;18.67;;;;;;;5.33;83.95;95690.72;5076466;28;20016;-62
2021/12/06 04:50:24;;;;;;;53.40;19.42;;;;;;;5.37;83.86;95683.66;5076323;28;20025;-63
2021/12/06 04:52:50;;;;;;;45.25;20.73;;;;;;;5.40;84.43;95681.00;5076474;28;20056;-65
2021/12/06 04:55:29;;;;;;;48.58;20.73;;;;;;;5.41;84.21;95688.72;5076341;28;20078;-65
2021/12/06 04:57:55;;;;;;;62.75;21.13;;;;;;;5.45;84.55;95689.50;5076251;28;20081;-65
2021/12/06 05:00:31;;;;;;;43.55;19.55;;;;;;;5.50;84.55;95676.34;5076162;28;20028;-63
2021/12/06 05:02:57;;;;;;;43.00;20.33;;;;;;;5.55;84.42;95677.06;5076154;28;20033;-59
2021/12/06 05:05:28;;;;;;;37.17;17.98;;;;;;;5.59;84.50;95694.22;5076049;28;20024;-61
2021/12/06 05:08:26;;;;;;;37.65;19.80;;;;;;;5.62;84.60;95683.75;5074878;28;20494;-63
2021/12/06 05:10:52;;;;;;;44.10;19.38;;;;;;;5.64;84.45;95678.50;5067884;28;20093;-64
2021/12/06 05:13:18;;;;;;;39.20;19.08;;;;;;;5.65;84.48;95691.44;5075851;28;20588;-64
2021/12/06 05:15:44;;;;;;;38.47;16.95;;;;;;;5.60;84.69;95693.31;5075998;28;20032;-67
2021/12/06 05:18:09;;;;;;;46.53;17.10;;;;;;;5.63;84.64;95700.19;5075945;28;20467;-61
2021/12/06 05:20:36;;;;;;;48.50;20.70;;;;;;;5.66;84.44;95700.91;5075824;28;20048;-61
2021/12/06 05:23:04;;;;;;;46.15;20.33;;;;;;;5.67;84.76;95699.19;5075521;28;20044;-64
2021/12/06 05:25:30;;;;;;;46.63;20.67;;;;;;;5.69;84.82;95700.00;5075846;28;20027;-63
2021/12/06 05:27:58;;;;;;;64.18;22.48;;;;;;;5.74;84.90;95699.81;5075744;28;20029;-61
2021/12/06 05:30:25;;;;;;;51.00;21.92;;;;;;;5.73;84.85;95698.97;5075708;28;20028;-62
2021/12/06 05:32:51;;;;;;;53.53;22.02;;;;;;;5.75;84.98;95697.16;5075614;28;20029;-65
2021/12/06 05:35:17;;;;;;;51.40;23.92;;;;;;;5.77;85.00;95702.31;5075385;28;20012;-66
2021/12/06 05:37:47;;;;;;;41.70;21.13;;;;;;;5.81;84.92;95703.94;5075011;28;20048;-66
2021/12/06 05:40:18;;;;;;;46.45;20.48;;;;;;;5.85;84.87;95704.66;5075673;28;20024;-64
2021/12/06 05:42:45;;;;;;;41.70;20.35;;;;;;;5.86;84.82;95707.22;5075387;28;20509;-64
2021/12/06 05:45:11;;;;;;;60.10;22.92;;;;;;;5.89;84.94;95701.06;5075449;28;20029;-64
2021/12/06 05:47:37;;;;;;;42.25;21.00;;;;;;;5.93;85.29;95698.31;5075391;28;20060;-65
2021/12/06 05:50:04;;;;;;;58.20;27.40;;;;;;;5.97;85.07;95700.81;5075366;28;20064;-64
2021/12/06 05:52:30;;;;;;;44.75;23.40;;;;;;;5.98;84.79;95699.91;5075251;28;20052;-66
2021/12/06 05:54:56;;;;;;;43.08;23.35;;;;;;;5.98;84.79;95690.38;5075203;28;20044;-64
2021/12/06 05:57:21;;;;;;;47.28;23.58;;;;;;;5.99;84.89;95696.44;5075211;28;20101;-62
2021/12/06 05:59:47;;;;;;;46.30;23.52;;;;;;;6.02;84.70;95701.53;5075145;28;20047;-64
2021/12/06 06:02:13;;;;;;;48.10;21.92;;;;;;;6.00;85.14;95692.94;5075030;28;20463;-63
2021/12/06 06:04:39;;;;;;;52.78;24.20;;;;;;;6.00;85.18;95704.19;5074980;28;20036;-66
2021/12/06 06:07:05;;;;;;;50.95;24.17;;;;;;;5.98;85.32;95700.78;5074968;28;20028;-67
2021/12/06 06:09:31;;;;;;;47.45;23.50;;;;;;;6.01;85.08;95687.69;5074886;28;20482;-62
2021/12/06 06:11:57;;;;;;;47.55;21.92;;;;;;;6.01;85.36;95681.63;5074882;28;20029;-63
2021/12/06 06:14:22;;;;;;;50.67;22.52;;;;;;;5.96;85.94;95679.19;5074919;28;20017;-61
2021/12/06 06:16:51;;;;;;;51.30;22.35;;;;;;;5.98;86.16;95690.38;5074805;28;20390;-59
2021/12/06 06:19:24;;;;;;;46.50;22.95;;;;;;;6.01;86.40;95685.09;5074701;28;20501;-64
2021/12/06 06:21:51;;;;;;;52.30;22.55;;;;;;;6.12;86.68;95683.91;5074629;28;20089;-64
2021/12/06 06:24:17;;;;;;;50.28;27.88;;;;;;;6.17;86.96;95684.63;5074620;28;20394;-61
2021/12/06 06:26:43;;;;;;;68.43;32.13;;;;;;;6.17;87.18;95695.84;5074491;28;20021;-63
2021/12/06 06:29:10;;;;;;;65.65;29.40;;;;;;;6.26;87.14;95686.06;5074474;28;20165;-63
2021/12/06 06:31:36;;;;;;;60.63;26.60;;;;;;;6.39;87.60;95694.25;5074467;28;20016;-65
2021/12/06 06:34:03;;;;;;;56.83;29.08;;;;;;;6.50;87.97;95689.53;5074470;28;20032;-64
2021/12/06 06:36:28;;;;;;;60.05;27.05;;;;;;;6.61;87.59;95696.09;5074439;28;20060;-62
2021/12/06 06:38:54;;;;;;;62.25;29.77;;;;;;;6.65;87.47;95703.72;5074349;28;20059;-60
2021/12/06 06:41:20;;;;;;;60.15;27.95;;;;;;;6.70;87.07;95694.03;5074217;28;20024;-64
2021/12/06 06:43:46;;;;;;;98.20;50.08;;;;;;;6.77;87.12;95702.44;5074180;28;20078;-62
2021/12/06 06:46:11;;;;;;;108.45;55.50;;;;;;;6.78;86.87;95698.94;5074268;28;20480;-63
2021/12/06 06:48:37;;;;;;;78.93;44.15;;;;;;;6.89;86.72;95703.72;5073179;28;20048;-64
2021/12/06 06:51:04;;;;;;;70.10;37.88;;;;;;;6.94;86.49;95699.22;5074042;28;20035;-63
2021/12/06 06:53:30;;;;;;;73.88;37.63;;;;;;;7.01;86.78;95694.63;5074098;28;20020;-63
2021/12/06 06:55:57;;;;;;;57.90;32.25;;;;;;;7.07;87.03;95707.41;5073930;28;20028;-66
2021/12/06 06:58:24;;;;;;;70.57;33.33;;;;;;;7.13;87.19;95711.53;5073916;28;20021;-64
2021/12/06 07:00:51;;;;;;;72.55;31.98;;;;;;;7.22;87.68;95718.13;5073907;28;20028;-62
2021/12/06 07:03:17;;;;;;;55.28;27.00;;;;;;;7.37;88.41;95713.28;5073675;28;20067;-63
2021/12/06 07:05:43;;;;;;;51.90;26.92;;;;;;;7.52;87.59;95707.47;5073878;28;20070;-66
2021/12/06 07:08:08;;;;;;;51.83;27.92;;;;;;;7.67;87.86;95715.56;5073748;28;20031;-64
2021/12/06 07:10:35;;;;;;;47.63;26.45;;;;;;;7.82;87.34;95709.75;5073764;28;20431;-63
2021/12/06 07:13:04;;;;;;;53.10;26.30;;;;;;;7.95;87.31;95710.09;5073676;28;20052;-65
2021/12/06 07:15:32;;;;;;;42.15;25.38;;;;;;;8.08;87.43;95704.41;5073613;28;20391;-63
2021/12/06 07:18:01;;;;;;;42.55;23.27;;;;;;;8.26;87.28;95702.78;5073541;28;20021;-64
2021/12/06 07:20:35;;;;;;;33.17;19.92;;;;;;;8.45;86.73;95694.16;5131664;27;20512;-65
2021/12/06 07:23:03;;;;;;;29.92;19.23;;;;;;;8.63;86.59;95692.56;5130220;27;20050;-65
2021/12/06 07:25:30;;;;;;;26.00;14.07;;;;;;;8.85;86.29;95700.28;5131454;27;20427;-62
2021/12/06 07:27:58;;;;;;;20.92;11.55;;;;;;;9.19;85.38;95697.94;5131283;27;20023;-60
2021/12/06 07:30:24;;;;;;;16.55;10.30;;;;;;;9.60;83.40;95689.06;5131309;27;20023;-64
2021/12/06 07:32:52;;;;;;;26.23;12.30;;;;;;;9.78;82.39;95691.69;5131291;27;20032;-67
2021/12/06 07:35:19;;;;;;;17.50;10.18;;;;;;;9.89;81.40;95698.16;5131231;27;20388;-65
2021/12/06 07:37:45;;;;;;;19.17;10.82;;;;;;;10.09;81.11;95686.75;5131181;27;20072;-63
2021/12/06 07:40:13;;;;;;;18.60;12.00;;;;;;;10.39;80.92;95673.06;5131051;27;20019;-65
2021/12/06 07:42:39;;;;;;;20.08;12.93;;;;;;;10.94;79.68;95670.28;5131106;27;20028;-64
2021/12/06 07:45:07;;;;;;;13.48;10.70;;;;;;;12.35;74.49;95668.63;5131105;27;20028;-63
2021/12/06 07:47:36;;;;;;;10.13;7.07;;;;;;;13.32;69.64;95668.91;5130973;27;20051;-65
2021/12/06 07:50:09;;;;;;;8.85;5.20;;;;;;;12.85;69.87;95670.91;5129732;28;20492;-63
2021/12/06 07:52:35;;;;;;;13.02;5.80;;;;;;;12.33;72.49;95676.59;5130970;27;20043;-62
2021/12/06 07:55:02;;;;;;;9.43;6.40;;;;;;;12.22;72.89;95684.25;5130870;27;20019;-60
2021/12/06 07:57:28;;;;;;;13.63;5.15;;;;;;;11.79;73.05;95680.50;5130818;27;20020;-60
2021/12/06 07:59:56;;;;;;;8.15;5.00;;;;;;;11.57;74.62;95683.47;5130766;27;20024;-63
2021/12/06 08:02:22;;;;;;;10.32;4.68;;;;;;;11.53;74.65;95685.41;5129677;28;20060;-62
2021/12/06 08:04:54;;;;;;;10.57;5.47;;;;;;;11.78;74.11;95676.19;5130629;27;20478;-65
2021/12/06 08:07:20;;;;;;;10.98;5.18;;;;;;;11.96;73.92;95687.41;5130723;27;20024;-64
2021/12/06 08:09:49;;;;;;;10.50;4.47;;;;;;;12.31;72.78;95688.09;5130603;27;20024;-60
2021/12/06 08:12:15;;;;;;;8.55;4.00;;;;;;;13.34;69.14;95702.97;5130507;27;20031;-62
2021/12/06 08:14:40;;;;;;;11.27;3.67;;;;;;;13.78;66.62;95695.84;5129133;28;20026;-66
2021/12/06 08:17:06;;;;;;;7.75;4.20;;;;;;;14.14;65.37;95690.91;5130386;27;20045;-61
2021/12/06 08:19:31;;;;;;;13.60;4.60;;;;;;;14.49;64.54;95697.41;5130037;27;20501;-62
2021/12/06 08:21:57;;;;;;;10.68;4.72;;;;;;;14.82;62.69;95696.09;5130269;27;20023;-64
2021/12/06 08:24:23;;;;;;;10.52;4.28;;;;;;;15.27;61.16;95698.25;5130271;27;20036;-64
2021/12/06 08:26:48;;;;;;;8.05;4.30;;;;;;;15.28;60.29;95686.78;5130322;27;20030;-66
2021/12/06 08:29:16;;;;;;;8.32;4.40;;;;;;;15.16;60.13;95693.75;5130188;28;20072;-63
2021/12/06 08:31:44;;;;;;;7.30;4.28;;;;;;;15.16;60.81;95675.31;5117725;27;20031;-65
2021/12/06 08:34:10;;;;;;;9.43;4.80;;;;;;;15.26;61.39;95672.88;5116355;28;20023;-65
2021/12/06 08:36:36;;;;;;;8.77;4.55;;;;;;;15.64;59.37;95668.44;5116406;28;20066;-62
2021/12/06 08:39:05;;;;;;;7.60;4.35;;;;;;;15.86;59.93;95664.25;5116265;28;20437;-66
2021/12/06 08:41:31;;;;;;;9.02;4.00;;;;;;;15.81;59.30;95661.13;5116320;27;20118;-61
2021/12/06 08:44:01;;;;;;;9.32;4.75;;;;;;;15.68;60.51;95671.69;5116347;28;20557;-64
2021/12/06 08:46:33;;;;;;;9.63;3.78;;;;;;;15.55;60.12;95666.47;5116315;28;20032;-61
2021/12/06 08:49:00;;;;;;;5.75;3.90;;;;;;;15.39;60.72;95675.47;5116171;28;20534;-67
2021/12/06 08:51:29;;;;;;;10.70;4.38;;;;;;;14.74;61.17;95678.16;5116156;28;20054;-60
2021/12/06 08:53:57;;;;;;;11.60;5.00;;;;;;;14.11;63.28;95681.44;5116118;28;20055;-63
2021/12/06 08:56:23;;;;;;;6.75;4.93;;;;;;;13.62;65.23;95667.09;5116079;28;20430;-64
2021/12/06 08:58:49;;;;;;;18.33;5.40;;;;;;;13.53;65.54;95663.28;5115796;28;20023;-66
2021/12/06 09:01:15;;;;;;;11.20;5.07;;;;;;;13.10;67.10;95645.78;5115902;28;20026;-63
2021/12/06 09:03:40;;;;;;;14.63;5.13;;;;;;;12.95;67.62;95655.47;5115792;28;20119;-63
2021/12/06 09:06:10;;;;;;;11.90;5.30;;;;;;;13.05;68.11;95642.59;5115885;28;20035;-64
2021/12/06 09:08:37;;;;;;;10.02;5.05;;;;;;;13.11;68.08;95648.31;5115638;28;20032;-60
2021/12/06 09:11:04;;;;;;;9.18;4.22;;;;;;;13.21;68.05;95635.44;5115606;28;20494;-62
2021/12/06 09:13:31;;;;;;;9.63;3.42;;;;;;;12.96;67.91;95642.25;5115781;28;20473;-64
2021/12/06 09:15:59;;;;;;;6.68;2.88;;;;;;;12.82;68.23;95637.84;5115729;28;20475;-65
2021/12/06 09:18:26;;;;;;;12.63;3.78;;;;;;;12.74;68.57;95637.47;5115278;28;20023;-62
2021/12/06 09:20:52;;;;;;;11.48;3.15;;;;;;;12.69;69.68;95631.66;5115501;28;20465;-61
2021/12/06 09:23:19;;;;;;;4.03;2.88;;;;;;;12.69;69.52;95632.50;5115456;28;20381;-64
2021/12/06 09:25:46;;;;;;;8.82;3.22;;;;;;;12.70;68.91;95628.13;5115374;28;20023;-59
2021/12/06 09:28:16;;;;;;;6.22;3.20;;;;;;;12.70;69.43;95621.06;5115438;28;20453;-65
2021/12/06 09:30:42;;;;;;;7.53;3.57;;;;;;;12.81;69.00;95630.06;5115089;28;20028;-64
2021/12/06 09:33:10;;;;;;;9.98;3.80;;;;;;;12.80;69.02;95642.34;5115270;28;20031;-59
2021/12/06 09:35:39;;;;;;;10.30;4.72;;;;;;;12.68;69.47;95622.09;5115308;28;20031;-61
2021/12/06 09:38:05;;;;;;;12.02;4.80;;;;;;;12.60;69.98;95610.31;5115259;28;20020;-61
2021/12/06 09:40:35;;;;;;;8.65;4.40;;;;;;;12.45;70.88;95613.84;5115125;28;20101;-64
2021/12/06 09:43:02;;;;;;;7.78;3.58;;;;;;;12.61;71.33;95605.88;5114112;28;20024;-64
2021/12/06 09:45:31;;;;;;;7.68;3.55;;;;;;;12.92;69.84;95601.38;5114966;28;20095;-65
2021/12/06 09:47:59;;;;;;;7.53;3.10;;;;;;;12.98;70.05;95602.78;5114892;28;20023;-64
2021/12/06 09:50:32;;;;;;;7.63;4.07;;;;;;;13.11;69.82;95594.97;5114817;28;20016;-62
2021/12/06 09:53:12;;;;;;;12.13;5.35;;;;;;;13.43;70.70;95591.22;5114831;28;20549;-62
2021/12/06 09:55:40;;;;;;;21.40;3.50;;;;;;;13.59;69.65;95596.34;5114800;28;20055;-64
2021/12/06 09:58:07;;;;;;;9.57;3.05;;;;;;;13.71;67.89;95594.69;5114867;28;20032;-61
2021/12/06 10:00:38;;;;;;;8.48;3.60;;;;;;;13.84;66.60;95598.19;5114885;28;20027;-64
2021/12/06 10:03:04;;;;;;;7.43;3.38;;;;;;;13.86;68.08;95585.81;5114944;28;20097;-67
2021/12/06 10:05:30;;;;;;;17.30;3.63;;;;;;;13.86;66.15;95577.94;5113405;28;20416;-65
2021/12/06 10:07:58;;;;;;;8.15;3.72;;;;;;;13.91;68.70;95577.63;5114467;28;20031;-60
2021/12/06 10:10:26;;;;;;;11.23;3.40;;;;;;;14.01;67.87;95567.31;5114456;28;20381;-60
2021/12/06 10:12:54;;;;;;;12.13;3.45;;;;;;;14.01;66.61;95569.94;5114630;28;20028;-62
2021/12/06 10:15:25;;;;;;;13.18;3.65;;;;;;;14.10;66.42;95569.34;5114509;28;20374;-61
2021/12/06 10:17:55;;;;;;;9.20;2.80;;;;;;;14.14;66.82;95568.19;5114430;27;20480;-61
2021/12/06 10:20:22;;;;;;;9.25;4.05;;;;;;;14.27;66.80;95562.09;5114120;28;20130;-65
2021/12/06 10:22:50;;;;;;;7.10;3.20;;;;;;;14.30;65.75;95561.84;5114312;28;20039;-60
2021/12/06 10:25:17;;;;;;;14.07;4.28;;;;;;;14.23;65.47;95563.22;5114205;28;20032;-65
2021/12/06 10:27:58;;;;;;;7.80;3.28;;;;;;;14.26;66.73;95563.00;5114242;28;20035;-65
2021/12/06 10:30:25;;;;;;;7.70;3.45;;;;;;;14.28;65.25;95562.00;5114153;28;20055;-64
2021/12/06 10:33:04;;;;;;;8.10;3.13;;;;;;;14.40;65.96;95562.94;5114211;28;20065;-65
2021/12/06 10:35:31;;;;;;;7.47;3.63;;;;;;;14.37;65.06;95557.88;5114316;28;20385;-65
2021/12/06 10:37:58;;;;;;;5.75;3.88;;;;;;;14.29;64.25;95554.91;5114011;28;20015;-62
2021/12/06 10:40:28;;;;;;;11.13;3.55;;;;;;;14.24;64.65;95549.16;5114003;28;20019;-63
2021/12/06 10:42:56;;;;;;;9.98;3.35;;;;;;;14.18;64.86;95534.59;5114000;28;20024;-63
2021/12/06 10:45:32;;;;;;;8.90;3.45;;;;;;;14.15;66.14;95527.78;5113882;28;20035;-63
2021/12/06 10:48:19;;;;;;;10.48;3.60;;;;;;;14.07;65.71;95527.47;5112744;28;20034;-62
2021/12/06 10:50:50;;;;;;;6.60;2.90;;;;;;;13.95;64.95;95521.25;5113849;28;20027;-64
2021/12/06 10:53:19;;;;;;;9.60;3.00;;;;;;;13.85;66.52;95523.66;5113504;28;20036;-66
2021/12/06 10:55:47;;;;;;;5.60;2.67;;;;;;;13.93;65.71;95519.69;5113641;28;20491;-62
2021/12/06 10:58:17;;;;;;;6.55;2.42;;;;;;;13.87;66.45;95506.00;5113775;28;20024;-65
2021/12/06 11:00:48;;;;;;;11.25;3.25;;;;;;;13.88;66.77;95526.06;5112614;28;20404;-61
2021/12/06 11:03:20;;;;;;;5.60;2.67;;;;;;;13.95;66.32;95515.16;5113696;28;20089;-62
2021/12/06 11:05:50;;;;;;;8.00;2.70;;;;;;;13.92;66.27;95507.47;5113629;28;20064;-66
2021/12/06 11:08:19;;;;;;;7.53;3.72;;;;;;;13.88;66.97;95510.31;5113608;28;20016;-64
2021/12/06 11:10:49;;;;;;;10.18;4.00;;;;;;;13.73;67.71;95520.06;5113713;28;20039;-62
2021/12/06 11:13:28;;;;;;;11.52;4.60;;;;;;;13.60;69.23;95514.78;5113676;28;20504;-60
2021/12/06 11:16:08;;;;;;;11.63;4.30;;;;;;;13.58;69.33;95497.47;5113518;28;20038;-62
2021/12/06 11:18:41;;;;;;;11.20;4.72;;;;;;;13.66;69.57;95510.91;5113176;28;20443;-61
2021/12/06 11:21:25;;;;;;;12.38;4.75;;;;;;;13.73;69.25;95492.97;5113604;28;20034;-64
2021/12/06 11:24:09;;;;;;;9.93;4.10;;;;;;;13.81;68.68;95497.72;5113444;28;20031;-64
2021/12/06 11:26:41;;;;;;;9.95;3.83;;;;;;;13.88;68.83;95488.47;5113485;28;20028;-64
2021/12/06 11:29:13;;;;;;;9.32;3.83;;;;;;;13.87;68.42;95482.34;5113461;28;20048;-67
2021/12/06 11:31:42;;;;;;;7.82;3.75;;;;;;;14.00;68.28;95492.03;5113455;28;20033;-62
2021/12/06 11:34:08;;;;;;;6.25;3.00;;;;;;;14.00;67.24;95484.16;5113388;28;20084;-61
2021/12/06 11:36:39;;;;;;;9.30;3.15;;;;;;;14.09;67.66;95482.66;5112082;28;20495;-68
2021/12/06 11:39:11;;;;;;;7.07;2.60;;;;;;;14.10;67.41;95489.59;5113290;28;20077;-66
2021/12/06 11:41:42;;;;;;;8.98;2.60;;;;;;;14.17;66.47;95479.50;5113359;28;20587;-64